Time;durP1;ratioP1;P1;durP2;ratioP2;P2;SDS_P1;SDS_P2;PMS_P1;PMS_P2;Temp;Humidity;BMP_temperature;BMP_pressure;BME280_temperature;BME280_humidity;BME280_pressure;Samples;Min_cycle;Max_cycle;Signal;HPM_P1;HPM_P2
2023/01/31 00:01:13;;;;;;;1.83;0.90;;;2.70;99.90;;;;;;4972002;28;20043;-93
2023/01/31 00:03:41;;;;;;;1.33;0.88;;;2.80;99.90;;;;;;4968540;28;20047;-93
2023/01/31 00:06:14;;;;;;;2.65;1.00;;;2.80;99.90;;;;;;4952003;29;20055;-93
2023/01/31 00:08:41;;;;;;;2.15;0.93;;;2.90;99.90;;;;;;4953102;29;20122;-91
2023/01/31 00:11:08;;;;;;;1.15;0.80;;;3.00;99.90;;;;;;4936495;29;20098;-92
2023/01/31 00:13:35;;;;;;;4.35;1.45;;;3.00;99.90;;;;;;4952555;28;20059;-92
2023/01/31 00:16:03;;;;;;;1.83;1.00;;;3.00;99.90;;;;;;4937088;29;20055;-93
2023/01/31 00:18:30;;;;;;;1.73;1.00;;;3.00;99.90;;;;;;4936548;29;20047;-92
2023/01/31 00:20:56;;;;;;;3.25;1.25;;;3.10;99.90;;;;;;4936908;29;20078;-93
2023/01/31 00:23:23;;;;;;;1.25;0.85;;;3.10;99.90;;;;;;4953262;28;20133;-92
2023/01/31 00:25:50;;;;;;;3.00;1.13;;;3.20;99.90;;;;;;4950754;29;20051;-93
2023/01/31 00:28:18;;;;;;;2.83;1.17;;;3.20;99.90;;;;;;4962974;28;20082;-91
2023/01/31 00:30:45;;;;;;;1.38;1.00;;;3.30;99.90;;;;;;4950271;28;20043;-92
2023/01/31 00:33:11;;;;;;;3.13;0.90;;;3.50;99.90;;;;;;4951964;28;20085;-93
2023/01/31 00:35:39;;;;;;;1.67;1.00;;;3.60;99.90;;;;;;4993416;28;20087;-93
2023/01/31 00:38:06;;;;;;;1.85;1.40;;;3.70;99.90;;;;;;4996264;28;20087;-92
2023/01/31 00:40:33;;;;;;;3.55;1.20;;;3.90;99.90;;;;;;4965862;28;20042;-93
2023/01/31 00:43:00;;;;;;;1.15;0.73;;;4.00;99.90;;;;;;4962814;29;20419;-93
2023/01/31 00:45:26;;;;;;;2.65;0.90;;;4.00;99.90;;;;;;4967125;29;20450;-92
2023/01/31 00:47:53;;;;;;;1.60;0.70;;;4.00;99.90;;;;;;4964798;28;20043;-93
2023/01/31 00:50:20;;;;;;;2.00;0.93;;;4.00;99.90;;;;;;4953792;29;20059;-92
2023/01/31 00:52:47;;;;;;;1.25;0.70;;;4.00;99.90;;;;;;4950095;28;20497;-94
2023/01/31 00:55:13;;;;;;;1.77;0.80;;;4.00;99.90;;;;;;4949979;28;20055;-94
2023/01/31 00:57:40;;;;;;;3.90;1.00;;;4.00;99.90;;;;;;4949407;28;20055;-92
2023/01/31 01:00:08;;;;;;;1.05;0.60;;;4.00;99.90;;;;;;4949958;29;20515;-92
2023/01/31 01:02:35;;;;;;;2.03;0.80;;;4.00;99.90;;;;;;4949181;28;20126;-92
2023/01/31 01:05:02;;;;;;;1.92;0.63;;;4.00;99.90;;;;;;4934372;29;20071;-92
2023/01/31 01:07:29;;;;;;;1.35;0.65;;;4.10;99.90;;;;;;4953786;29;20075;-90
2023/01/31 01:09:57;;;;;;;0.75;0.68;;;4.20;99.90;;;;;;4953820;29;20051;-93
2023/01/31 01:12:23;;;;;;;2.03;0.82;;;4.20;99.90;;;;;;4961385;28;20078;-92
2023/01/31 01:14:50;;;;;;;0.82;0.50;;;4.20;99.90;;;;;;4951513;28;20059;-94
2023/01/31 01:17:17;;;;;;;1.45;0.68;;;4.30;99.90;;;;;;4951522;29;20125;-90
2023/01/31 01:19:44;;;;;;;1.38;0.60;;;4.40;99.90;;;;;;4952147;29;20313;-93
2023/01/31 01:22:14;;;;;;;2.15;0.70;;;4.40;99.90;;;;;;4953273;28;20427;-93
2023/01/31 01:24:45;;;;;;;2.38;1.00;;;4.50;99.90;;;;;;4953176;28;20051;-91
2023/01/31 01:27:11;;;;;;;2.40;0.90;;;4.50;99.90;;;;;;4985616;28;20125;-92
2023/01/31 01:29:38;;;;;;;1.02;0.60;;;4.60;99.90;;;;;;4969329;28;20601;-90
2023/01/31 01:32:05;;;;;;;0.88;0.60;;;4.60;99.90;;;;;;4952675;28;20487;-91
2023/01/31 01:34:33;;;;;;;2.25;0.90;;;4.70;99.90;;;;;;4950368;28;20051;-91
2023/01/31 01:37:00;;;;;;;1.08;0.65;;;4.70;99.90;;;;;;4964820;28;20070;-91
2023/01/31 01:39:29;;;;;;;1.05;0.70;;;4.70;99.90;;;;;;4950268;28;20117;-92
2023/01/31 01:41:56;;;;;;;1.17;0.60;;;4.70;99.90;;;;;;4951361;28;20138;-91
2023/01/31 01:44:51;;;;;;;1.95;0.80;;;4.70;99.90;;;;;;4951944;29;20818;-92
2023/01/31 01:47:33;;;;;;;1.23;0.75;;;4.70;99.90;;;;;;4955545;28;20114;-92
2023/01/31 01:50:07;;;;;;;2.67;0.80;;;4.80;99.90;;;;;;4955100;29;20495;-92
2023/01/31 01:52:36;;;;;;;1.85;0.98;;;4.90;99.90;;;;;;4986360;28;20081;-93
2023/01/31 01:55:10;;;;;;;2.58;0.98;;;4.90;99.90;;;;;;4953694;29;20155;-93
2023/01/31 01:57:39;;;;;;;4.47;1.85;;;5.10;99.90;;;;;;4964303;29;20069;-93
2023/01/31 02:00:14;;;;;;;2.03;1.10;;;5.20;99.90;;;;;;4952792;28;20150;-92
2023/01/31 02:02:43;;;;;;;4.38;1.48;;;5.30;99.90;;;;;;4983195;28;20051;-92
2023/01/31 02:05:11;;;;;;;3.40;1.40;;;5.40;99.90;;;;;;4950659;29;20051;-90
2023/01/31 02:07:38;;;;;;;3.55;1.35;;;5.50;99.90;;;;;;4936333;29;20144;-92
2023/01/31 02:10:16;;;;;;;2.17;1.20;;;5.50;99.90;;;;;;4951763;29;20089;-91
2023/01/31 02:12:42;;;;;;;2.40;1.08;;;5.60;99.90;;;;;;4985297;28;20306;-90
2023/01/31 02:15:10;;;;;;;6.63;1.27;;;5.60;99.90;;;;;;4951702;29;20141;-93
2023/01/31 02:17:36;;;;;;;3.67;1.40;;;5.70;99.90;;;;;;4983946;28;20051;-93
2023/01/31 02:20:12;;;;;;;5.88;1.88;;;5.70;99.90;;;;;;4953810;28;20087;-93
2023/01/31 02:22:53;;;;;;;4.93;1.30;;;5.80;99.90;;;;;;4984690;28;20138;-92
2023/01/31 02:25:31;;;;;;;3.25;1.40;;;5.80;99.90;;;;;;4983063;28;20059;-91
2023/01/31 02:28:23;;;;;;;3.15;1.52;;;5.80;99.90;;;;;;4952235;28;20090;-93
2023/01/31 02:31:19;;;;;;;4.90;1.90;;;5.80;99.90;;;;;;4984310;28;20051;-92
2023/01/31 02:34:03;;;;;;;5.22;1.48;;;5.80;99.90;;;;;;4950391;28;20069;-92
2023/01/31 02:36:36;;;;;;;;;;;5.80;99.90;;;;;;4948378;28;20499;-94
2023/01/31 02:39:09;;;;;;;5.63;1.90;;;5.80;99.90;;;;;;4954518;29;20090;-94
2023/01/31 02:42:25;;;;;;;6.43;2.10;;;5.90;99.90;;;;;;4955867;28;20061;-93
2023/01/31 02:44:58;;;;;;;5.95;2.10;;;5.90;99.90;;;;;;4968816;28;20142;-92
2023/01/31 02:47:55;;;;;;;6.80;2.40;;;6.00;99.90;;;;;;4966217;28;20047;-92
2023/01/31 02:50:30;;;;;;;4.57;1.90;;;6.00;99.90;;;;;;4952842;29;20147;-92
2023/01/31 02:53:07;;;;;;;5.22;2.03;;;6.10;99.90;;;;;;4968748;28;20155;-92
2023/01/31 02:58:34;;;;;;;8.35;2.78;;;6.10;99.90;;;;;;4979419;28;20047;-93
2023/01/31 03:01:02;;;;;;;6.47;2.05;;;6.10;99.90;;;;;;4956056;29;20138;-93
2023/01/31 03:03:36;;;;;;;10.77;2.42;;;6.10;99.90;;;;;;4987410;28;20047;-92
2023/01/31 03:06:26;;;;;;;9.50;2.38;;;6.10;99.90;;;;;;4972621;28;20054;-93
2023/01/31 03:08:58;;;;;;;9.02;2.30;;;6.00;99.90;;;;;;4955606;29;20043;-93
2023/01/31 03:11:29;;;;;;;5.70;2.42;;;6.10;99.90;;;;;;4988877;28;20102;-93
2023/01/31 03:14:35;;;;;;;9.55;2.55;;;6.10;99.90;;;;;;4986346;28;20151;-93
2023/01/31 03:17:32;;;;;;;6.38;2.50;;;6.10;99.90;;;;;;4939652;29;20341;-93
2023/01/31 03:20:39;;;;;;;4.68;1.95;;;6.10;99.90;;;;;;4934534;29;20051;-91
2023/01/31 03:23:28;;;;;;;6.47;1.80;;;6.10;99.90;;;;;;4955488;28;20051;-92
2023/01/31 03:25:56;;;;;;;7.25;1.98;;;6.10;99.90;;;;;;4956008;28;20062;-93
2023/01/31 03:28:28;;;;;;;9.98;2.90;;;6.10;99.90;;;;;;4954169;29;20051;-93
2023/01/31 03:31:18;;;;;;;6.30;1.92;;;6.20;99.90;;;;;;4955795;28;20067;-92
2023/01/31 03:33:49;;;;;;;5.15;2.03;;;6.20;99.90;;;;;;4941585;29;20051;-93
2023/01/31 03:36:36;;;;;;;12.38;2.58;;;6.20;99.90;;;;;;4970594;28;20135;-93
2023/01/31 03:39:13;;;;;;;6.70;2.22;;;6.20;99.90;;;;;;4955476;28;20054;-94
2023/01/31 03:41:53;;;;;;;6.55;3.03;;;6.20;99.90;;;;;;4939563;29;20051;-94
2023/01/31 03:44:58;;;;;;;7.88;2.25;;;6.30;99.90;;;;;;4955153;29;20079;-94
2023/01/31 03:47:30;;;;;;;7.57;1.83;;;6.30;99.90;;;;;;4952907;28;20321;-94
2023/01/31 03:49:58;;;;;;;4.18;1.65;;;6.30;99.90;;;;;;4939821;28;20127;-93
2023/01/31 03:52:28;;;;;;;6.72;2.28;;;6.30;99.90;;;;;;4960047;29;20074;-93
2023/01/31 03:54:59;;;;;;;10.93;2.83;;;6.30;99.90;;;;;;4945341;29;20180;-93
2023/01/31 03:57:36;;;;;;;12.77;2.47;;;6.30;99.90;;;;;;4973795;28;20074;-94
2023/01/31 04:00:04;;;;;;;5.78;2.00;;;6.30;99.90;;;;;;4971893;28;20388;-94
2023/01/31 04:02:34;;;;;;;7.90;2.10;;;6.30;99.90;;;;;;4972286;28;20547;-94
2023/01/31 04:05:12;;;;;;;5.82;2.08;;;6.30;99.90;;;;;;4973298;28;20074;-94
2023/01/31 04:07:39;;;;;;;6.18;2.03;;;6.30;99.90;;;;;;4955283;29;20437;-93
2023/01/31 04:10:12;;;;;;;6.07;1.83;;;6.30;99.90;;;;;;4971061;28;20486;-93
2023/01/31 04:12:39;;;;;;;7.60;2.95;;;6.30;99.90;;;;;;4987382;28;20134;-93
2023/01/31 04:15:06;;;;;;;8.68;2.45;;;6.30;99.90;;;;;;4975534;28;20081;-94
2023/01/31 04:17:33;;;;;;;7.53;2.15;;;6.30;99.90;;;;;;4955469;29;20178;-94
2023/01/31 04:20:00;;;;;;;5.68;1.80;;;6.30;99.90;;;;;;4954098;29;20130;-92
2023/01/31 04:22:27;;;;;;;6.90;2.10;;;6.30;99.90;;;;;;4956185;28;20082;-92
2023/01/31 04:24:54;;;;;;;5.55;2.33;;;6.30;99.90;;;;;;4954294;29;20100;-93
2023/01/31 04:27:21;;;;;;;6.00;1.88;;;6.30;99.90;;;;;;4955046;29;20410;-91
2023/01/31 04:29:47;;;;;;;6.00;1.90;;;6.30;99.90;;;;;;4954650;29;20047;-93
2023/01/31 04:32:14;;;;;;;5.60;1.90;;;6.30;99.90;;;;;;4954727;28;20327;-92
2023/01/31 04:34:41;;;;;;;7.00;1.80;;;6.40;99.90;;;;;;4954545;28;20247;-92
2023/01/31 04:37:08;;;;;;;6.03;1.88;;;6.40;99.90;;;;;;4953876;29;20135;-93
2023/01/31 04:39:35;;;;;;;4.88;2.55;;;6.30;99.90;;;;;;4954873;28;20062;-92
2023/01/31 04:42:02;;;;;;;6.32;2.20;;;6.40;99.90;;;;;;4955876;28;20047;-93
2023/01/31 04:44:29;;;;;;;6.20;2.00;;;6.40;99.90;;;;;;4953256;28;20054;-91
2023/01/31 04:46:56;;;;;;;5.57;2.45;;;6.40;99.90;;;;;;4954343;28;20047;-93
2023/01/31 04:49:22;;;;;;;5.38;1.70;;;6.40;99.90;;;;;;4954177;28;20059;-93
2023/01/31 04:51:49;;;;;;;5.10;2.00;;;6.40;99.90;;;;;;4953902;28;20494;-91
2023/01/31 04:54:16;;;;;;;5.43;1.83;;;6.40;99.90;;;;;;4984405;28;20059;-91
2023/01/31 04:56:43;;;;;;;8.32;2.15;;;6.40;99.90;;;;;;4953301;29;20443;-93
2023/01/31 04:59:09;;;;;;;4.60;1.77;;;6.40;99.90;;;;;;4953957;28;20134;-93
2023/01/31 05:01:36;;;;;;;6.10;2.00;;;6.40;99.90;;;;;;4954918;28;20043;-92
2023/01/31 05:04:03;;;;;;;6.15;1.63;;;6.50;99.90;;;;;;4954045;28;20513;-93
2023/01/31 05:06:30;;;;;;;8.23;1.80;;;6.50;99.90;;;;;;4956489;28;20232;-94
2023/01/31 05:09:00;;;;;;;5.97;1.88;;;6.50;99.90;;;;;;4956732;28;20055;-94
2023/01/31 05:11:27;;;;;;;4.70;1.73;;;6.50;99.90;;;;;;4971045;28;20051;-93
2023/01/31 05:13:54;;;;;;;5.18;1.90;;;6.50;99.90;;;;;;4987227;28;20047;-93
2023/01/31 05:16:22;;;;;;;11.32;2.28;;;6.50;99.90;;;;;;4962117;28;20047;-93
2023/01/31 05:18:49;;;;;;;8.60;2.17;;;6.50;99.90;;;;;;4961810;29;20057;-93
2023/01/31 05:21:16;;;;;;;3.38;1.48;;;6.40;99.90;;;;;;4960507;28;20055;-91
2023/01/31 05:23:43;;;;;;;4.90;1.63;;;6.40;99.90;;;;;;4958353;29;20071;-90
2023/01/31 05:26:10;;;;;;;5.35;1.65;;;6.50;99.90;;;;;;4961322;29;20070;-93
2023/01/31 05:28:37;;;;;;;5.20;2.33;;;6.40;99.90;;;;;;4962104;28;20043;-92
2023/01/31 05:31:05;;;;;;;5.72;1.80;;;6.40;99.90;;;;;;4966566;28;20059;-92
2023/01/31 05:33:33;;;;;;;5.75;1.65;;;6.50;99.90;;;;;;4996461;28;20083;-91
2023/01/31 05:35:59;;;;;;;5.20;1.65;;;6.40;99.90;;;;;;4976272;28;20089;-92
2023/01/31 05:38:26;;;;;;;7.32;2.30;;;6.40;99.90;;;;;;4957499;29;20432;-93
2023/01/31 05:40:53;;;;;;;4.28;1.80;;;6.40;99.90;;;;;;4937075;29;20078;-92
2023/01/31 05:43:20;;;;;;;9.15;2.47;;;6.40;99.90;;;;;;4986546;28;20545;-91
2023/01/31 05:45:48;;;;;;;7.97;2.20;;;6.40;99.90;;;;;;4955354;29;20044;-93
2023/01/31 05:48:14;;;;;;;6.00;1.90;;;6.40;99.90;;;;;;4948710;28;20428;-93
2023/01/31 05:50:42;;;;;;;4.72;1.90;;;6.40;99.90;;;;;;4939661;29;20065;-92
2023/01/31 05:53:09;;;;;;;7.82;2.20;;;6.40;99.90;;;;;;4954035;28;20437;-92
2023/01/31 05:55:36;;;;;;;6.70;2.13;;;6.40;99.90;;;;;;4952115;28;20470;-93
2023/01/31 05:58:03;;;;;;;8.88;2.47;;;6.40;99.90;;;;;;4933465;29;20363;-93
2023/01/31 06:00:31;;;;;;;6.80;2.15;;;6.40;99.90;;;;;;4980398;28;20065;-87
2023/01/31 06:02:58;;;;;;;6.10;1.90;;;6.40;99.90;;;;;;4950544;28;20047;-91
2023/01/31 06:05:26;;;;;;;8.55;2.30;;;6.50;99.90;;;;;;4974628;28;20411;-94
2023/01/31 06:07:54;;;;;;;7.50;1.58;;;6.50;99.90;;;;;;4965911;28;20070;-94
2023/01/31 06:10:21;;;;;;;5.18;1.98;;;6.50;99.90;;;;;;4975945;28;20047;-92
2023/01/31 06:12:48;;;;;;;7.22;2.08;;;6.50;99.90;;;;;;4951965;28;20499;-91
2023/01/31 06:15:15;;;;;;;3.72;1.65;;;6.50;99.90;;;;;;4949885;28;20562;-93
2023/01/31 06:17:42;;;;;;;4.63;1.50;;;6.50;99.90;;;;;;4980986;28;20057;-95
2023/01/31 06:20:09;;;;;;;8.20;2.85;;;6.60;99.90;;;;;;4983947;28;20047;-95
2023/01/31 06:22:36;;;;;;;6.47;2.60;;;6.60;99.90;;;;;;4969809;28;20566;-96
2023/01/31 06:25:03;;;;;;;9.95;2.13;;;6.60;99.90;;;;;;4964076;28;20126;-93
2023/01/31 06:27:32;;;;;;;10.15;1.90;;;6.60;99.90;;;;;;4944258;28;20043;-88
2023/01/31 06:29:59;;;;;;;6.97;2.28;;;6.60;99.90;;;;;;4937995;29;20055;-80
2023/01/31 06:32:26;;;;;;;3.92;1.42;;;6.60;99.90;;;;;;4935668;28;20079;-80
2023/01/31 06:34:53;;;;;;;7.15;2.13;;;6.60;99.90;;;;;;4942349;28;20093;-80
2023/01/31 06:37:19;;;;;;;5.82;1.80;;;6.60;99.90;;;;;;4942148;28;20055;-80
2023/01/31 06:39:46;;;;;;;7.53;3.25;;;6.60;99.90;;;;;;4973120;28;20420;-91
2023/01/31 06:42:13;;;;;;;4.55;1.80;;;6.50;99.90;;;;;;4943410;28;20916;-93
2023/01/31 06:44:41;;;;;;;8.23;1.63;;;6.50;99.90;;;;;;4943692;28;20732;-90
2023/01/31 06:47:08;;;;;;;6.15;1.70;;;6.50;99.90;;;;;;4953673;28;20076;-90
2023/01/31 06:49:35;;;;;;;5.20;1.40;;;6.40;99.90;;;;;;4947800;28;20054;-89
2023/01/31 06:52:02;;;;;;;4.75;1.70;;;6.40;99.90;;;;;;4946461;28;20532;-90
2023/01/31 06:54:29;;;;;;;6.43;1.80;;;6.40;99.90;;;;;;4979370;28;20153;-90
2023/01/31 06:56:56;;;;;;;4.68;1.73;;;6.30;99.90;;;;;;4945555;28;20557;-91
2023/01/31 06:59:22;;;;;;;7.88;1.80;;;6.30;99.90;;;;;;4974665;28;20063;-89
2023/01/31 07:01:49;;;;;;;6.47;1.70;;;6.30;99.90;;;;;;4957865;28;20356;-91
2023/01/31 07:04:16;;;;;;;10.68;2.00;;;6.30;99.90;;;;;;4947423;28;20051;-90
2023/01/31 07:06:43;;;;;;;6.55;1.60;;;6.30;99.90;;;;;;4946621;29;20514;-92
2023/01/31 07:09:10;;;;;;;4.68;2.03;;;6.30;99.90;;;;;;4947218;28;20397;-91
2023/01/31 07:11:37;;;;;;;4.30;1.50;;;6.40;99.90;;;;;;4926856;29;20056;-81
2023/01/31 07:14:04;;;;;;;2.88;1.23;;;6.40;99.90;;;;;;4956607;28;20091;-87
2023/01/31 07:16:31;;;;;;;4.97;1.58;;;6.40;99.90;;;;;;4959136;28;20429;-80
2023/01/31 07:18:58;;;;;;;6.45;1.65;;;6.60;99.90;;;;;;4961886;28;20051;-91
2023/01/31 07:21:25;;;;;;;6.00;1.60;;;6.70;99.90;;;;;;4958735;28;20071;-90
2023/01/31 07:23:52;;;;;;;3.58;1.45;;;6.70;99.90;;;;;;4965246;28;20055;-90
2023/01/31 07:26:19;;;;;;;9.32;1.50;;;6.80;99.90;;;;;;4934525;28;20047;-90
2023/01/31 07:28:47;;;;;;;5.30;1.70;;;6.90;99.90;;;;;;4934077;29;20065;-89
2023/01/31 07:31:14;;;;;;;6.10;1.60;;;6.90;99.90;;;;;;4951804;29;20051;-90
2023/01/31 07:33:41;;;;;;;7.13;1.90;;;7.00;99.90;;;;;;4982424;28;20149;-90
2023/01/31 07:36:11;;;;;;;3.47;1.60;;;7.00;99.90;;;;;;4951192;28;20134;-89
2023/01/31 07:38:38;;;;;;;4.97;1.60;;;7.00;99.90;;;;;;4931650;28;20121;-90
2023/01/31 07:41:07;;;;;;;7.63;1.40;;;7.00;99.90;;;;;;4947436;29;20087;-91
2023/01/31 07:43:34;;;;;;;6.82;2.25;;;7.00;99.90;;;;;;4959253;28;20079;-90
2023/01/31 07:46:01;;;;;;;4.55;1.45;;;7.10;99.90;;;;;;4950535;29;20507;-90
2023/01/31 07:48:28;;;;;;;7.88;2.22;;;7.10;99.90;;;;;;4950351;28;20055;-91
2023/01/31 07:50:59;;;;;;;7.50;1.77;;;7.10;99.90;;;;;;4914981;29;20078;-90
2023/01/31 07:53:27;;;;;;;3.65;1.50;;;7.10;99.90;;;;;;4966085;28;20119;-90
2023/01/31 07:55:54;;;;;;;6.47;1.98;;;7.20;99.90;;;;;;4966608;28;20085;-90
2023/01/31 07:58:21;;;;;;;8.65;2.05;;;7.20;99.90;;;;;;4965693;28;20063;-90
2023/01/31 08:03:36;;;;;;;7.38;2.03;;;7.30;99.90;;;;;;4951575;29;20079;-91
2023/01/31 08:06:07;;;;;;;7.82;1.77;;;7.30;99.90;;;;;;4951720;29;20133;-91
2023/01/31 08:08:36;;;;;;;5.22;1.58;;;7.40;99.90;;;;;;4968047;28;20606;-91
2023/01/31 08:11:04;;;;;;;3.50;1.40;;;7.40;99.90;;;;;;4981855;28;20097;-90
2023/01/31 08:13:32;;;;;;;3.00;1.50;;;7.50;99.90;;;;;;4917124;29;20080;-89
2023/01/31 08:15:59;;;;;;;3.55;1.40;;;7.60;99.90;;;;;;4935149;28;20481;-91
2023/01/31 08:18:26;;;;;;;9.07;2.10;;;7.60;99.90;;;;;;4933871;29;20601;-91
2023/01/31 08:20:53;;;;;;;6.07;2.13;;;7.70;99.90;;;;;;4933748;29;20358;-89
2023/01/31 08:23:20;;;;;;;4.40;1.60;;;7.70;99.90;;;;;;4980905;28;20063;-90
2023/01/31 08:25:47;;;;;;;4.80;1.77;;;7.70;99.90;;;;;;4982038;28;20406;-89
2023/01/31 08:28:14;;;;;;;5.65;1.70;;;7.80;99.90;;;;;;4980328;28;20499;-90
2023/01/31 08:30:42;;;;;;;7.25;1.70;;;7.80;99.90;;;;;;4980060;28;20603;-89
2023/01/31 08:33:13;;;;;;;4.90;2.00;;;7.80;99.90;;;;;;4963669;28;20080;-88
2023/01/31 08:35:40;;;;;;;4.20;1.92;;;7.80;99.90;;;;;;4950262;29;20047;-90
2023/01/31 08:38:07;;;;;;;7.25;2.20;;;7.80;99.90;;;;;;4951096;29;20769;-92
2023/01/31 08:40:43;;;;;;;6.32;1.80;;;7.80;99.90;;;;;;4921348;29;20051;-91
2023/01/31 08:43:10;;;;;;;5.68;1.83;;;7.80;99.90;;;;;;4949634;29;20047;-89
2023/01/31 08:45:37;;;;;;;5.35;2.63;;;7.80;99.90;;;;;;4951762;28;20047;-89
2023/01/31 08:48:05;;;;;;;6.03;1.77;;;7.80;99.90;;;;;;4966382;28;20150;-90
2023/01/31 08:50:32;;;;;;;5.63;1.70;;;7.90;99.90;;;;;;4967031;28;20098;-89
2023/01/31 08:53:01;;;;;;;4.43;1.30;;;7.80;99.90;;;;;;4964722;28;20067;-90
2023/01/31 08:55:28;;;;;;;8.20;1.92;;;7.90;99.90;;;;;;4966360;28;20071;-88
2023/01/31 08:57:56;;;;;;;8.68;2.17;;;7.90;99.90;;;;;;4947024;29;20758;-87
2023/01/31 09:00:26;;;;;;;7.40;2.55;;;7.90;99.90;;;;;;4948895;28;20235;-88
2023/01/31 09:02:57;;;;;;;5.15;1.98;;;7.90;99.90;;;;;;4913638;29;20107;-89
2023/01/31 09:05:25;;;;;;;7.80;1.88;;;7.90;99.90;;;;;;4948993;29;20529;-88
2023/01/31 09:07:52;;;;;;;10.48;2.63;;;7.90;99.90;;;;;;4948716;29;20138;-88
2023/01/31 09:10:20;;;;;;;8.98;2.40;;;7.90;99.90;;;;;;4932272;29;20483;-88
2023/01/31 09:12:47;;;;;;;7.05;2.13;;;8.00;99.90;;;;;;4919524;29;20092;-88
2023/01/31 09:15:14;;;;;;;5.93;2.05;;;8.00;99.90;;;;;;4980238;28;20086;-90
2023/01/31 09:17:42;;;;;;;8.35;2.58;;;8.00;99.90;;;;;;4966033;28;20059;-89
2023/01/31 09:20:09;;;;;;;4.13;1.90;;;8.10;99.90;;;;;;4963606;28;20063;-88
2023/01/31 09:22:36;;;;;;;5.00;1.75;;;8.10;99.90;;;;;;4963652;28;20066;-87
2023/01/31 09:25:04;;;;;;;3.83;1.88;;;8.10;99.90;;;;;;4965021;28;20043;-89
2023/01/31 09:27:32;;;;;;;5.80;2.72;;;8.10;99.90;;;;;;4949203;28;20098;-89
2023/01/31 09:29:59;;;;;;;7.63;2.10;;;8.10;99.90;;;;;;4979076;28;20117;-89
2023/01/31 09:32:25;;;;;;;5.13;2.25;;;8.20;99.90;;;;;;4981478;28;20514;-89
2023/01/31 09:34:52;;;;;;;6.40;2.22;;;8.20;99.90;;;;;;4950198;29;20047;-89
2023/01/31 09:37:19;;;;;;;6.55;1.70;;;8.30;99.90;;;;;;4948996;29;20110;-88
2023/01/31 09:39:46;;;;;;;10.65;2.30;;;8.40;99.90;;;;;;4932517;28;20063;-88
2023/01/31 09:42:23;;;;;;;13.50;3.22;;;8.40;99.90;;;;;;4949258;29;20550;-88
2023/01/31 09:45:03;;;;;;;5.78;2.35;;;8.50;99.90;;;;;;4933222;29;20059;-89
2023/01/31 09:47:35;;;;;;;9.10;2.65;;;8.50;99.90;;;;;;4947837;28;20051;-88
2023/01/31 09:50:17;;;;;;;6.40;2.30;;;8.70;99.90;;;;;;4931506;29;20487;-88
2023/01/31 09:52:44;;;;;;;9.13;2.45;;;8.70;99.90;;;;;;4932403;28;20360;-88
2023/01/31 09:55:42;;;;;;;5.88;2.03;;;8.80;99.90;;;;;;4978380;28;20214;-88
2023/01/31 09:58:24;;;;;;;8.18;2.67;;;8.80;99.90;;;;;;4942475;28;20154;-89
2023/01/31 10:01:12;;;;;;;5.45;1.90;;;8.80;99.90;;;;;;4948383;28;20063;-89
2023/01/31 10:04:11;;;;;;;4.97;1.77;;;8.70;99.90;;;;;;4973540;28;20142;-87
2023/01/31 10:07:03;;;;;;;8.50;3.13;;;8.70;99.90;;;;;;4947665;29;20139;-88
2023/01/31 10:09:39;;;;;;;9.57;2.22;;;8.70;99.90;;;;;;4932764;29;20059;-88
2023/01/31 10:12:23;;;;;;;9.90;2.85;;;8.70;99.90;;;;;;4932315;29;20058;-89
2023/01/31 10:15:22;;;;;;;10.52;2.95;;;8.60;99.90;;;;;;4933059;29;20044;-89
2023/01/31 10:17:52;;;;;;;7.38;2.10;;;8.70;99.90;;;;;;4949613;28;20097;-88
2023/01/31 10:20:21;;;;;;;6.97;2.03;;;8.60;99.90;;;;;;4933255;29;20051;-89
2023/01/31 10:22:54;;;;;;;8.30;1.90;;;8.70;99.90;;;;;;4932594;28;20384;-89
2023/01/31 10:25:30;;;;;;;5.32;1.85;;;8.70;99.90;;;;;;4949638;29;20051;-89
2023/01/31 10:28:00;;;;;;;6.70;2.10;;;8.70;99.90;;;;;;4948863;29;20155;-88
2023/01/31 10:30:49;;;;;;;5.45;1.92;;;8.70;99.90;;;;;;4949685;29;20126;-89
2023/01/31 10:33:22;;;;;;;7.03;1.77;;;8.70;99.90;;;;;;4979924;28;20082;-88
2023/01/31 10:35:50;;;;;;;5.30;1.95;;;8.70;99.90;;;;;;4931105;29;20079;-87
2023/01/31 10:38:24;;;;;;;5.53;1.70;;;8.80;99.90;;;;;;4947837;29;20048;-88
2023/01/31 10:41:05;;;;;;;8.77;2.15;;;8.80;99.90;;;;;;4977467;28;20051;-89
2023/01/31 10:43:42;;;;;;;4.63;1.80;;;8.90;99.90;;;;;;4941643;29;20106;-88
2023/01/31 10:46:10;;;;;;;5.35;2.05;;;9.00;99.90;;;;;;4935426;29;20059;-89
2023/01/31 10:48:37;;;;;;;6.60;2.50;;;9.10;99.90;;;;;;4934246;29;20462;-88
2023/01/31 10:51:28;;;;;;;4.55;1.90;;;9.10;99.90;;;;;;4949565;28;20063;-87
2023/01/31 10:54:11;;;;;;;7.60;2.58;;;9.10;99.90;;;;;;4978887;28;20062;-88
2023/01/31 10:56:42;;;;;;;4.95;2.03;;;9.10;99.90;;;;;;4948655;29;20138;-87
2023/01/31 10:59:12;;;;;;;3.70;1.65;;;9.20;99.90;;;;;;4932881;29;20483;-87
2023/01/31 11:01:41;;;;;;;5.55;2.03;;;9.20;99.90;;;;;;4966061;28;20063;-88
2023/01/31 11:04:24;;;;;;;5.70;2.08;;;9.30;99.90;;;;;;4949160;28;20106;-88
2023/01/31 11:06:51;;;;;;;8.48;2.92;;;9.30;99.90;;;;;;4980787;28;20162;-89
2023/01/31 11:09:18;;;;;;;3.97;2.10;;;9.40;99.90;;;;;;4964149;28;20138;-89
2023/01/31 11:12:01;;;;;;;5.57;1.70;;;9.40;99.90;;;;;;4980297;28;20059;-88
2023/01/31 11:14:31;;;;;;;6.03;2.08;;;9.50;99.90;;;;;;4963881;28;20663;-89
2023/01/31 11:17:05;;;;;;;7.28;3.35;;;9.50;99.90;;;;;;4935077;29;20149;-88
2023/01/31 11:19:43;;;;;;;11.02;3.03;;;9.50;99.90;;;;;;4967639;28;20055;-89
2023/01/31 11:22:28;;;;;;;7.10;2.15;;;9.60;99.90;;;;;;4938281;29;20455;-89
2023/01/31 11:24:55;;;;;;;4.40;1.85;;;9.60;99.90;;;;;;4921514;29;20070;-89
2023/01/31 11:27:32;;;;;;;6.18;2.10;;;9.70;99.90;;;;;;4936303;29;20054;-87
2023/01/31 11:29:59;;;;;;;5.35;2.00;;;9.80;99.90;;;;;;4920439;29;20063;-90
2023/01/31 11:32:31;;;;;;;8.00;2.15;;;9.90;99.90;;;;;;4952770;28;20082;-90
2023/01/31 11:35:05;;;;;;;4.65;2.10;;;10.10;99.90;;;;;;4952091;29;20079;-90
2023/01/31 11:37:32;;;;;;;4.85;2.10;;;10.10;99.90;;;;;;4953268;28;20141;-88
2023/01/31 11:40:18;;;;;;;4.82;2.20;;;10.10;99.90;;;;;;4937323;29;20122;-89
2023/01/31 11:42:52;;;;;;;8.13;2.83;;;10.00;99.90;;;;;;4955318;29;20054;-88
2023/01/31 11:45:22;;;;;;;5.57;2.22;;;10.00;99.90;;;;;;4936988;29;20130;-89
2023/01/31 11:47:50;;;;;;;5.05;2.10;;;10.10;99.90;;;;;;4952720;28;20129;-88
2023/01/31 11:50:40;;;;;;;3.20;1.60;;;10.20;99.90;;;;;;4936783;29;20051;-90
2023/01/31 11:53:41;;;;;;;6.10;1.88;;;10.40;99.90;;;;;;4987260;28;20059;-89
2023/01/31 11:56:27;;;;;;;4.45;1.92;;;10.60;99.90;;;;;;4935537;29;20055;-89
2023/01/31 11:58:56;;;;;;;4.95;2.00;;;10.80;99.90;;;;;;4951802;29;20163;-89
2023/01/31 12:01:26;;;;;;;6.05;2.10;;;11.00;99.90;;;;;;4985220;28;20542;-89
2023/01/31 12:03:55;;;;;;;4.05;1.70;;;11.00;99.90;;;;;;4987838;28;20126;-89
2023/01/31 12:06:39;;;;;;;5.40;2.25;;;11.10;99.90;;;;;;4953783;28;20468;-90
2023/01/31 12:09:26;;;;;;;3.10;1.58;;;11.30;99.90;;;;;;4969318;28;20063;-90
2023/01/31 12:12:05;;;;;;;3.90;1.60;;;11.30;99.90;;;;;;4965971;28;20056;-90
2023/01/31 12:14:39;;;;;;;5.82;1.95;;;11.30;99.90;;;;;;4967129;28;20085;-90
2023/01/31 12:17:10;;;;;;;5.45;1.80;;;11.30;99.90;;;;;;4954079;29;20484;-89
2023/01/31 12:19:46;;;;;;;3.35;1.75;;;11.30;99.90;;;;;;4938743;29;20051;-89
2023/01/31 12:22:20;;;;;;;3.42;1.67;;;11.20;99.90;;;;;;4951883;29;20103;-87
2023/01/31 12:24:50;;;;;;;3.97;2.30;;;11.30;99.90;;;;;;4982003;28;20534;-89
2023/01/31 12:27:42;;;;;;;5.95;1.83;;;11.50;99.90;;;;;;4952710;28;20158;-89
2023/01/31 12:30:33;;;;;;;3.90;1.75;;;11.50;99.90;;;;;;4953890;29;20439;-88
2023/01/31 12:33:31;;;;;;;4.18;1.88;;;11.50;99.90;;;;;;4951061;29;20071;-88
2023/01/31 12:36:25;;;;;;;3.00;1.63;;;11.60;99.90;;;;;;4951877;29;20105;-89
2023/01/31 12:38:54;;;;;;;5.68;2.22;;;11.70;99.90;;;;;;4949332;28;20534;-89
2023/01/31 12:41:31;;;;;;;3.30;1.70;;;11.70;99.90;;;;;;4949079;29;20090;-88
2023/01/31 12:44:26;;;;;;;4.38;1.67;;;11.60;99.90;;;;;;4964089;28;20051;-90
2023/01/31 12:46:55;;;;;;;3.85;1.70;;;11.70;99.90;;;;;;4952134;29;20051;-89
2023/01/31 12:50:04;;;;;;;4.85;1.77;;;11.90;99.90;;;;;;4950643;29;20134;-88
2023/01/31 12:52:52;;;;;;;4.07;1.55;;;12.10;99.90;;;;;;4951439;29;20420;-88
2023/01/31 12:55:36;;;;;;;4.75;1.55;;;12.30;99.90;;;;;;4951563;28;20613;-89
2023/01/31 12:58:21;;;;;;;5.93;1.80;;;12.20;99.90;;;;;;4965046;28;20157;-90
2023/01/31 13:01:00;;;;;;;3.33;1.35;;;12.00;99.90;;;;;;4950933;29;20121;-89
2023/01/31 13:03:54;;;;;;;4.18;1.83;;;11.90;99.90;;;;;;4936194;29;20051;-89
2023/01/31 13:06:57;;;;;;;4.78;1.65;;;11.80;99.90;;;;;;4965512;28;20055;-89
2023/01/31 13:09:35;;;;;;;5.70;2.00;;;11.80;99.90;;;;;;4945251;29;20055;-90
2023/01/31 13:12:14;;;;;;;3.30;1.70;;;11.80;99.90;;;;;;4975143;28;20055;-85
2023/01/31 13:15:05;;;;;;;6.00;2.00;;;11.70;99.90;;;;;;4935481;29;20082;-85
2023/01/31 13:17:33;;;;;;;3.83;1.38;;;11.70;99.90;;;;;;4938066;28;20058;-82
2023/01/31 13:20:19;;;;;;;4.65;1.33;;;11.70;99.90;;;;;;4973587;28;20062;-85
2023/01/31 13:22:51;;;;;;;1.95;1.25;;;11.80;99.90;;;;;;4943634;29;20407;-86
2023/01/31 13:25:27;;;;;;;3.95;1.70;;;11.80;99.90;;;;;;4957863;28;20078;-86
2023/01/31 13:28:12;;;;;;;3.38;1.52;;;11.90;99.90;;;;;;4940552;28;20467;-76